Time;durP1;ratioP1;P1;durP2;ratioP2;P2;SDS_P1;SDS_P2;PMS_P1;PMS_P2;Temp;Humidity;BMP_temperature;BMP_pressure;BME280_temperature;BME280_humidity;BME280_pressure;Samples;Min_cycle;Max_cycle;Signal;HPM_P1;HPM_P2
2021/01/04 06:07:22;;;;;;;14.90;7.80;;;;;;;2.76;80.88;100789.81;1819012;77;949134;-56
2021/01/04 06:09:56;;;;;;;17.30;9.33;;;;;;;2.70;80.99;100793.09;1836618;78;21146;-56
2021/01/04 06:12:44;;;;;;;18.32;9.50;;;;;;;2.73;80.94;100786.91;1832935;78;21593;-58
2021/01/04 06:15:13;;;;;;;16.90;9.50;;;;;;;2.70;80.90;100785.80;1782029;79;21123;-58
2021/01/04 06:17:44;;;;;;;20.65;9.35;;;;;;;2.72;80.94;100787.00;1784958;78;21591;-58
2021/01/04 06:20:20;;;;;;;17.95;9.93;;;;;;;2.78;80.87;100799.13;1778700;79;21378;-56
2021/01/04 06:22:49;;;;;;;17.15;9.03;;;;;;;2.79;80.76;100803.37;1806932;78;21625;-62
2021/01/04 06:25:18;;;;;;;16.62;8.93;;;;;;;2.85;80.66;100805.63;1792243;79;21191;-64
2021/01/04 06:27:47;;;;;;;16.40;8.95;;;;;;;2.85;80.44;100797.88;1783070;78;21185;-68
2021/01/04 06:30:38;;;;;;;17.75;9.40;;;;;;;2.83;80.23;100797.59;1784507;78;21157;-58
2021/01/04 06:33:19;;;;;;;19.15;9.68;;;;;;;2.74;80.28;100798.10;1755613;80;21347;-60
2021/01/04 06:35:47;;;;;;;15.70;8.90;;;;;;;2.74;80.28;100798.10;1756327;80;21134;-68
2021/01/04 06:38:27;;;;;;;17.20;9.43;;;;;;;2.74;80.27;100804.55;1771332;79;21594;-65
2021/01/04 06:40:56;;;;;;;18.30;9.43;;;;;;;2.72;80.22;100807.19;1801171;79;21355;-57
2021/01/04 06:43:32;;;;;;;15.35;8.45;;;;;;;2.67;80.27;100814.33;1758523;80;21140;-58
2021/01/04 06:46:25;;;;;;;17.15;9.03;;;;;;;2.69;80.43;100821.56;1747083;81;21578;-59
2021/01/04 06:49:22;;;;;;;17.95;10.15;;;;;;;2.75;80.39;100822.53;1780106;80;21182;-58
2021/01/04 06:52:31;;;;;;;18.95;10.43;;;;;;;2.81;80.47;100824.79;1784444;80;21154;-59
2021/01/04 06:55:44;;;;;;;17.40;9.68;;;;;;;2.88;80.45;100822.72;1733320;82;21155;-57
2021/01/04 06:58:26;;;;;;;18.65;9.45;;;;;;;2.91;80.22;100821.25;1761287;80;21324;-56
2021/01/04 07:01:08;;;;;;;19.40;10.08;;;;;;;2.87;80.11;100814.14;1775975;79;21707;-58
2021/01/04 07:03:57;;;;;;;19.17;10.35;;;;;;;2.87;80.09;100815.89;1785339;78;21079;-58
2021/01/04 07:07:12;;;;;;;17.48;9.10;;;;;;;2.90;80.12;100813.97;1785574;78;21094;-57
2021/01/04 07:09:57;;;;;;;25.37;12.55;;;;;;;2.96;80.08;100803.77;1762098;78;21200;-59
2021/01/04 07:12:58;;;;;;;25.65;13.98;;;;;;;2.95;79.84;100808.56;1781248;78;21588;-58
2021/01/04 07:15:32;;;;;;;24.35;12.03;;;;;;;2.92;79.74;100801.00;1763153;78;21173;-61
2021/01/04 07:18:47;;;;;;;25.62;12.53;;;;;;;2.78;79.87;100793.13;1810581;77;22607;-60
2021/01/04 07:21:24;;;;;;;23.07;12.07;;;;;;;2.69;80.10;100788.84;1778378;80;21162;-57
2021/01/04 07:24:11;;;;;;;26.62;13.22;;;;;;;2.69;80.10;100788.84;1792780;80;21574;-58
2021/01/04 07:27:02;;;;;;;22.17;12.05;;;;;;;2.66;80.20;100786.41;1752517;81;21146;-56
2021/01/04 07:30:09;;;;;;;23.00;12.23;;;;;;;2.63;80.35;100778.02;1789795;78;21129;-61
2021/01/04 07:32:49;;;;;;;27.50;14.07;;;;;;;2.65;80.54;100760.23;1754766;78;21582;-57
2021/01/04 07:35:41;;;;;;;24.47;13.25;;;;;;;2.57;80.46;100749.95;1761578;81;21142;-57
2021/01/04 07:38:49;;;;;;;23.02;13.22;;;;;;;2.49;80.72;100749.53;1758207;81;21155;-57
2021/01/04 07:41:35;;;;;;;23.42;11.25;;;;;;;2.40;80.99;100758.57;1738767;81;21538;-59
2021/01/04 07:44:48;;;;;;;22.48;11.25;;;;;;;2.47;81.34;100767.65;1742668;82;21574;-58
2021/01/04 07:47:51;;;;;;;20.92;11.75;;;;;;;2.60;81.46;100775.58;1729224;81;21555;-63
2021/01/04 07:50:31;;;;;;;23.15;12.10;;;;;;;2.74;81.05;100765.38;1754487;81;21263;-63
2021/01/04 07:53:33;;;;;;;25.82;12.55;;;;;;;2.80;80.82;100755.19;1732037;81;21115;-57
2021/01/04 07:56:56;;;;;;;21.45;10.98;;;;;;;2.81;80.65;100751.23;1733611;82;21313;-56
2021/01/04 08:00:10;;;;;;;24.32;11.45;;;;;;;2.87;80.54;100752.66;1720988;81;21517;-60
2021/01/04 08:03:18;;;;;;;22.40;11.85;;;;;;;2.93;80.40;100759.61;1720246;83;21566;-60
2021/01/04 08:06:24;;;;;;;22.42;11.12;;;;;;;2.93;80.28;100767.81;1707161;81;21727;-58
2021/01/04 08:09:27;;;;;;;19.90;11.43;;;;;;;2.97;80.21;100764.12;1702648;83;21190;-57
2021/01/04 08:12:22;;;;;;;23.40;12.75;;;;;;;3.03;80.01;100772.83;1698857;82;21581;-58
2021/01/04 08:15:25;;;;;;;20.57;11.57;;;;;;;3.09;79.91;100777.66;1693618;83;21324;-61
2021/01/04 08:18:03;;;;;;;23.12;11.35;;;;;;;3.13;79.79;100780.92;1695925;82;21579;-64
2021/01/04 08:20:52;;;;;;;23.00;10.18;;;;;;;3.14;79.64;100784.70;1730343;82;21163;-60
2021/01/04 08:23:52;;;;;;;23.20;10.43;;;;;;;3.16;79.53;100787.20;1729508;82;21158;-59
2021/01/04 08:26:57;;;;;;;23.35;12.50;;;;;;;3.11;79.37;100796.51;1727887;82;21174;-64
2021/01/04 08:29:54;;;;;;;26.20;16.67;;;;;;;3.11;79.57;100804.25;1730522;80;21290;-63
2021/01/04 08:33:02;;;;;;;27.05;15.68;;;;;;;3.18;79.59;100808.62;1732752;82;21143;-62
2021/01/04 08:35:41;;;;;;;24.60;14.23;;;;;;;3.27;79.51;100817.61;1719235;82;21171;-58
2021/01/04 08:38:32;;;;;;;23.87;14.03;;;;;;;3.32;79.30;100819.03;1734395;82;21193;-65
2021/01/04 08:41:09;;;;;;;25.77;15.72;;;;;;;3.36;79.27;100818.41;1647844;86;21215;-60
2021/01/04 08:43:43;;;;;;;22.75;13.45;;;;;;;3.42;79.24;100834.41;1655413;86;21309;-58
2021/01/04 08:46:24;;;;;;;24.87;14.20;;;;;;;3.40;78.98;100834.93;1643274;86;21228;-56
2021/01/04 08:49:03;;;;;;;25.10;14.15;;;;;;;3.44;78.93;100841.61;1650161;86;21680;-64
2021/01/04 08:51:39;;;;;;;23.22;12.18;;;;;;;3.41;78.53;100835.77;1658338;86;22411;-58
2021/01/04 08:54:24;;;;;;;21.42;12.37;;;;;;;3.41;78.65;100832.72;1606615;89;21374;-58
2021/01/04 08:57:06;;;;;;;22.45;12.45;;;;;;;3.42;78.60;100842.16;1663138;86;21227;-59
2021/01/04 08:59:34;;;;;;;26.33;14.80;;;;;;;3.44;78.56;100837.73;1667342;86;21211;-63
2021/01/04 09:02:24;;;;;;;24.37;13.43;;;;;;;3.47;78.69;100839.30;1657257;86;21199;-59
2021/01/04 09:05:01;;;;;;;23.65;13.08;;;;;;;3.50;78.35;100842.56;1661218;86;21678;-62
2021/01/04 09:07:29;;;;;;;22.50;14.43;;;;;;;3.53;78.40;100832.97;1658177;86;21305;-60
2021/01/04 09:10:17;;;;;;;26.12;16.35;;;;;;;3.57;78.38;100828.01;1647330;85;21293;-61
2021/01/04 09:12:51;;;;;;;21.85;12.75;;;;;;;3.66;78.10;100825.73;1636307;86;21252;-60
2021/01/04 09:15:25;;;;;;;21.27;12.30;;;;;;;3.66;78.10;100825.73;1644660;86;21573;-65
2021/01/04 09:18:07;;;;;;;22.40;12.40;;;;;;;3.69;77.91;100838.50;1636723;85;21147;-59
2021/01/04 09:20:53;;;;;;;22.02;12.33;;;;;;;3.68;77.85;100847.17;1653861;86;21203;-62
2021/01/04 09:23:30;;;;;;;;;;;;;;;3.69;77.79;100850.13;1627747;86;21757;-61
2021/01/04 09:26:09;;;;;;;26.20;14.33;;;;;;;3.72;77.79;100842.65;1637410;85;20160;-65
2021/01/04 09:28:47;;;;;;;21.80;13.48;;;;;;;3.74;77.81;100833.91;1631409;87;21337;-65
2021/01/04 09:31:17;;;;;;;22.13;12.50;;;;;;;3.80;77.74;100827.56;1628900;88;21252;-58
2021/01/04 09:33:51;;;;;;;19.35;11.43;;;;;;;3.84;77.62;100823.86;1628922;87;22189;-67
2021/01/04 09:36:22;;;;;;;21.15;11.70;;;;;;;3.85;77.46;100822.97;1631339;87;21562;-64
2021/01/04 09:38:51;;;;;;;19.70;11.55;;;;;;;3.88;77.54;100820.19;1648167;85;21217;-60
2021/01/04 09:41:19;;;;;;;23.38;12.47;;;;;;;3.90;77.47;100826.09;1639442;86;21156;-62
2021/01/04 09:43:47;;;;;;;21.33;12.43;;;;;;;3.94;77.31;100820.30;1613504;87;21410;-61
2021/01/04 09:46:26;;;;;;;20.60;11.85;;;;;;;3.95;77.18;100816.80;1635562;86;21296;-63
2021/01/04 09:49:01;;;;;;;22.02;12.53;;;;;;;3.99;77.14;100824.75;1615884;87;21241;-61
2021/01/04 09:51:38;;;;;;;20.90;11.85;;;;;;;4.03;77.03;100818.47;1614030;87;21587;-65
2021/01/04 09:54:08;;;;;;;22.90;12.60;;;;;;;4.07;76.94;100825.60;1625169;86;21211;-62
2021/01/04 09:56:48;;;;;;;22.67;13.18;;;;;;;4.16;76.86;100827.64;1811090;77;22619;-59
2021/01/04 09:59:24;;;;;;;25.62;13.53;;;;;;;4.13;76.72;100832.55;1783455;80;21338;-62
2021/01/04 10:01:59;;;;;;;25.72;13.90;;;;;;;4.16;76.61;100834.11;1782037;80;21171;-60
2021/01/04 10:04:40;;;;;;;19.37;10.60;;;;;;;4.17;76.50;100826.28;1786343;79;21335;-59
2021/01/04 10:07:21;;;;;;;23.10;12.93;;;;;;;4.18;76.40;100828.41;1799639;78;21098;-64
2021/01/04 10:09:52;;;;;;;23.02;13.58;;;;;;;4.10;76.45;100830.15;1804469;78;21507;-65
2021/01/04 10:12:24;;;;;;;26.35;14.28;;;;;;;4.13;76.49;100821.37;1798103;78;21174;-58
2021/01/04 10:14:56;;;;;;;22.85;12.98;;;;;;;4.11;76.36;100818.88;1800261;79;21134;-63
2021/01/04 10:17:41;;;;;;;25.10;13.15;;;;;;;4.03;76.37;100822.34;1806800;78;21162;-66
2021/01/04 10:20:27;;;;;;;20.85;11.88;;;;;;;3.96;76.45;100822.33;1761732;81;21708;-61
2021/01/04 10:22:56;;;;;;;22.62;12.18;;;;;;;3.90;76.60;100824.80;1727197;81;22331;-60
2021/01/04 10:25:43;;;;;;;22.22;12.85;;;;;;;3.92;76.66;100820.86;1766185;81;21168;-58
2021/01/04 10:28:14;;;;;;;24.87;13.62;;;;;;;3.89;76.62;100820.56;1711829;83;21199;-60
2021/01/04 10:30:43;;;;;;;27.98;14.60;;;;;;;3.91;76.75;100821.33;1727318;81;21186;-57
2021/01/04 10:33:25;;;;;;;23.90;13.25;;;;;;;3.94;76.88;100817.26;1737632;81;21123;-62
2021/01/04 10:36:18;;;;;;;23.70;12.70;;;;;;;3.98;76.71;100818.76;1730000;81;21110;-60
2021/01/04 10:39:14;;;;;;;25.77;13.90;;;;;;;4.10;76.63;100825.41;1753126;81;21527;-58
2021/01/04 10:41:42;;;;;;;25.02;14.78;;;;;;;4.10;76.63;100825.41;1735872;81;21181;-61
2021/01/04 10:44:15;;;;;;;29.80;16.02;;;;;;;4.10;76.31;100821.53;1759322;81;21506;-63
2021/01/04 10:46:47;;;;;;;26.07;16.30;;;;;;;4.09;76.34;100814.70;1738283;81;21205;-65
2021/01/04 10:49:29;;;;;;;25.70;14.05;;;;;;;4.09;76.34;100814.23;1724332;81;21625;-61
2021/01/04 10:51:58;;;;;;;25.40;14.10;;;;;;;4.09;76.25;100817.28;1741457;80;21166;-64
2021/01/04 10:54:40;;;;;;;28.52;15.23;;;;;;;4.07;76.23;100813.50;1749848;81;21163;-63
2021/01/04 10:57:30;;;;;;;24.85;14.07;;;;;;;4.11;76.37;100808.53;1761169;81;21159;-63
2021/01/04 11:00:17;;;;;;;30.32;15.15;;;;;;;4.15;76.30;100808.70;1762352;80;21202;-63
2021/01/04 11:02:49;;;;;;;24.55;14.35;;;;;;;4.09;76.19;100804.35;1760334;81;21661;-61
2021/01/04 11:05:20;;;;;;;26.12;14.38;;;;;;;4.06;76.36;100806.67;1766426;79;21144;-64
2021/01/04 11:07:49;;;;;;;27.45;14.43;;;;;;;4.12;76.34;100793.37;1744314;81;21174;-65
2021/01/04 11:10:25;;;;;;;26.35;16.10;;;;;;;4.12;76.34;100793.37;1744450;82;21284;-63
2021/01/04 11:12:57;;;;;;;28.05;17.65;;;;;;;4.13;76.33;100799.38;1760414;81;22337;-67
2021/01/04 11:15:35;;;;;;;27.42;16.23;;;;;;;4.09;76.58;100789.66;1735073;81;21602;-66
2021/01/04 11:18:12;;;;;;;26.80;15.05;;;;;;;4.16;76.73;100782.37;1750603;81;21183;-66
2021/01/04 11:20:41;;;;;;;24.65;13.13;;;;;;;4.13;76.57;100790.33;1740709;81;21147;-67
2021/01/04 11:23:13;;;;;;;24.60;13.98;;;;;;;4.08;76.88;100794.94;1745821;82;21649;-66
2021/01/04 11:25:44;;;;;;;23.55;13.28;;;;;;;4.09;76.89;100786.25;1746071;82;21201;-65
2021/01/04 11:28:13;;;;;;;26.82;15.10;;;;;;;4.07;76.76;100790.23;1745781;82;21225;-59
2021/01/04 11:30:44;;;;;;;26.50;14.30;;;;;;;4.10;76.75;100796.95;1749854;81;21110;-66
2021/01/04 11:33:15;;;;;;;27.50;15.23;;;;;;;4.10;76.70;100796.95;1736030;81;21589;-65
2021/01/04 11:35:43;;;;;;;28.87;15.70;;;;;;;4.12;76.51;100799.02;1758757;81;21434;-62
2021/01/04 11:38:11;;;;;;;26.73;14.87;;;;;;;4.06;76.33;100793.73;1715993;84;21169;-66
2021/01/04 11:40:40;;;;;;;31.50;16.67;;;;;;;4.02;76.46;100800.83;1736390;81;21154;-66
2021/01/04 11:43:09;;;;;;;27.62;16.23;;;;;;;4.01;76.63;100801.75;1747479;80;21106;-63
2021/01/04 11:45:41;;;;;;;28.45;15.25;;;;;;;4.03;76.57;100797.78;1734240;83;21638;-67
2021/01/04 11:48:11;;;;;;;26.77;15.23;;;;;;;3.97;76.52;100797.67;1711898;81;21349;-64
2021/01/04 11:50:39;;;;;;;25.97;15.48;;;;;;;3.97;76.66;100805.89;1735859;81;21198;-67
2021/01/04 11:53:08;;;;;;;25.92;14.10;;;;;;;3.99;76.69;100800.19;1745283;82;21169;-60
2021/01/04 11:55:37;;;;;;;25.90;14.55;;;;;;;4.03;76.54;100807.66;1744482;81;21246;-61
2021/01/04 11:58:05;;;;;;;28.67;15.45;;;;;;;4.04;76.52;100797.71;1744337;82;21170;-61
2021/01/04 12:00:34;;;;;;;27.80;15.85;;;;;;;4.10;76.67;100808.16;1733656;82;21312;-63
2021/01/04 12:03:02;;;;;;;26.25;15.15;;;;;;;4.15;76.39;100809.17;1721939;82;21427;-60
2021/01/04 12:05:31;;;;;;;27.40;15.08;;;;;;;4.19;76.46;100823.59;1728029;82;21161;-63
2021/01/04 12:08:00;;;;;;;29.40;16.55;;;;;;;4.19;76.39;100820.55;1759140;81;21146;-62
2021/01/04 12:10:29;;;;;;;26.90;15.35;;;;;;;4.19;76.31;100823.59;1729387;82;21337;-63
2021/01/04 12:12:57;;;;;;;26.33;13.90;;;;;;;4.20;76.26;100823.50;1707761;82;21169;-64
2021/01/04 12:15:26;;;;;;;28.40;15.60;;;;;;;4.20;76.22;100823.50;1699382;84;21550;-65
2021/01/04 12:17:55;;;;;;;27.75;15.32;;;;;;;4.23;76.17;100833.69;1705435;82;21228;-61
2021/01/04 12:20:25;;;;;;;30.02;16.80;;;;;;;4.24;76.05;100823.70;1719434;82;21539;-64
2021/01/04 12:22:56;;;;;;;31.45;15.75;;;;;;;4.25;75.92;100825.36;1737387;81;21170;-62
2021/01/04 12:25:25;;;;;;;31.15;16.02;;;;;;;4.23;75.84;100814.28;1745827;81;21743;-60
2021/01/04 12:27:57;;;;;;;27.10;15.95;;;;;;;4.17;75.71;100816.40;1722409;82;21152;-59
2021/01/04 12:30:27;;;;;;;28.07;16.00;;;;;;;4.06;75.74;100809.25;1712947;83;21524;-61
2021/01/04 12:32:55;;;;;;;29.42;15.93;;;;;;;4.05;76.03;100813.59;1745912;80;21166;-60
2021/01/04 12:35:24;;;;;;;28.07;16.35;;;;;;;4.06;76.02;100811.84;1718178;82;21199;-61
2021/01/04 12:37:53;;;;;;;27.25;14.43;;;;;;;4.03;76.09;100811.54;1727301;82;21579;-58
2021/01/04 12:40:26;;;;;;;29.90;16.62;;;;;;;4.03;76.09;100810.71;1751169;81;21119;-60
2021/01/04 12:42:57;;;;;;;30.17;16.67;;;;;;;3.88;76.13;100804.68;1744000;80;21129;-59
2021/01/04 12:45:26;;;;;;;28.55;15.65;;;;;;;3.80;76.45;100806.05;1746099;81;21542;-59
2021/01/04 12:47:54;;;;;;;30.85;16.82;;;;;;;3.76;76.76;100811.38;1710136;83;21572;-58
2021/01/04 12:50:22;;;;;;;28.50;16.52;;;;;;;3.75;76.84;100808.89;1741372;80;21163;-59
2021/01/04 12:52:51;;;;;;;29.92;17.00;;;;;;;3.68;77.08;100810.16;1731856;82;21798;-58
2021/01/04 12:55:20;;;;;;;32.35;16.97;;;;;;;3.68;77.08;100810.16;1715746;82;21634;-60
2021/01/04 12:57:48;;;;;;;35.50;17.75;;;;;;;3.69;77.14;100811.81;1721191;83;21175;-59
2021/01/04 13:02:59;;;;;;;32.13;17.32;;;;;;;3.80;77.29;100800.88;1803110;77;22295;-60
2021/01/04 13:05:27;;;;;;;31.33;17.52;;;;;;;3.76;77.49;100800.20;1731451;81;21206;-60
2021/01/04 13:07:57;;;;;;;32.15;16.52;;;;;;;3.75;77.09;100799.37;1791262;80;21276;-58
2021/01/04 13:10:25;;;;;;;31.33;16.02;;;;;;;3.64;77.04;100792.69;1746576;81;21566;-58
2021/01/04 13:12:55;;;;;;;29.65;14.95;;;;;;;3.56;77.29;100796.63;1745658;81;21166;-65
2021/01/04 13:15:24;;;;;;;29.05;16.75;;;;;;;3.51;77.46;100795.59;1741460;81;21160;-57
2021/01/04 13:17:54;;;;;;;34.45;18.32;;;;;;;3.45;77.62;100798.52;1687251;83;21326;-58
2021/01/04 13:20:22;;;;;;;33.45;18.05;;;;;;;3.40;77.86;100805.22;1730439;83;21168;-58
2021/01/04 13:22:52;;;;;;;33.38;18.15;;;;;;;3.40;77.86;100805.22;1694574;83;21170;-58
2021/01/04 13:25:21;;;;;;;32.80;17.25;;;;;;;3.31;77.93;100804.45;1703127;84;21278;-58
2021/01/04 13:27:49;;;;;;;32.80;17.02;;;;;;;3.32;78.31;100806.11;1696273;83;21325;-63
2021/01/04 13:30:19;;;;;;;31.55;18.30;;;;;;;3.39;78.40;100819.06;1706891;82;21704;-57
2021/01/04 13:32:50;;;;;;;32.08;17.73;;;;;;;3.46;78.44;100814.39;1710969;82;21447;-57
2021/01/04 13:35:19;;;;;;;37.93;20.65;;;;;;;3.49;78.29;100811.65;1708387;83;21322;-60
2021/01/04 13:37:48;;;;;;;42.17;20.70;;;;;;;3.47;78.13;100809.13;1696994;83;21803;-60
2021/01/04 13:40:17;;;;;;;38.92;18.92;;;;;;;3.49;78.09;100811.19;1708803;83;21595;-61
2021/01/04 13:42:48;;;;;;;35.92;17.92;;;;;;;3.40;78.06;100805.69;1688894;82;21205;-60
2021/01/04 13:45:20;;;;;;;41.00;23.12;;;;;;;3.35;78.27;100807.22;1700961;83;21172;-62
2021/01/04 13:47:49;;;;;;;40.43;22.40;;;;;;;3.38;78.40;100804.95;1725465;83;21230;-61
2021/01/04 13:50:17;;;;;;;47.93;25.55;;;;;;;3.35;78.42;100798.18;1711984;83;21330;-62
2021/01/04 13:52:46;;;;;;;40.98;21.93;;;;;;;3.29;78.39;100799.81;1697721;83;21196;-63
2021/01/04 13:55:15;;;;;;;47.98;23.65;;;;;;;3.31;78.52;100819.95;1704337;82;21336;-61
2021/01/04 13:57:43;;;;;;;42.70;21.12;;;;;;;3.36;78.56;100827.45;1713917;83;22354;-60
2021/01/04 14:00:14;;;;;;;37.45;21.27;;;;;;;3.53;78.33;100827.80;1685961;84;21167;-63
2021/01/04 14:02:42;;;;;;;35.70;20.02;;;;;;;3.53;78.33;100827.80;1678843;84;21141;-60
2021/01/04 14:05:12;;;;;;;33.75;18.00;;;;;;;3.59;78.15;100827.45;1741016;82;21187;-61
2021/01/04 14:07:40;;;;;;;37.48;19.52;;;;;;;3.66;77.99;100827.48;1750235;80;21213;-62
2021/01/04 14:10:12;;;;;;;31.05;15.80;;;;;;;3.70;77.70;100813.02;1733656;81;21123;-62
2021/01/04 14:12:42;;;;;;;38.95;20.55;;;;;;;3.72;77.48;100808.58;1733058;81;21119;-62
2021/01/04 14:15:12;;;;;;;46.48;26.48;;;;;;;3.65;77.26;100809.02;1739538;82;21608;-63
2021/01/04 14:17:42;;;;;;;57.53;35.38;;;;;;;3.57;77.38;100803.46;1749535;82;21606;-64
2021/01/04 14:20:13;;;;;;;60.45;38.02;;;;;;;3.56;77.55;100791.47;1724925;82;21162;-62
2021/01/04 14:22:41;;;;;;;51.37;29.77;;;;;;;3.57;77.54;100795.25;1753565;82;21190;-60
2021/01/04 14:25:11;;;;;;;48.05;26.35;;;;;;;3.50;77.61;100805.56;1740580;80;21147;-59
2021/01/04 14:27:40;;;;;;;50.15;25.20;;;;;;;3.43;77.75;100794.73;1743057;80;21163;-60
2021/01/04 14:30:09;;;;;;;45.83;24.52;;;;;;;3.39;77.83;100792.39;1743320;81;21147;-61
2021/01/04 14:32:38;;;;;;;42.10;23.65;;;;;;;3.38;77.90;100798.48;1739045;82;21171;-65
2021/01/04 14:35:08;;;;;;;37.78;22.15;;;;;;;3.44;78.01;100802.02;1751811;82;21297;-63
